Toltec, Colorado
Current Conditions -  °F | °C
As of 12:09 AM on Saturday 29 Nov 2014 (Local Time) from KVTP Reporting Station
Clear Clear  
Wind Chill: 27°   Ceiling: Unl
Heat Index: 37°   Visibility: 10mi
Dew Point:   Wind: 18mph
Humidity: 24%   Direction: 200°SSW
Pressure: 30.03"   Gusts: 32mph
Location:  37.6936°N, 104.772°W
Report Text: KVTP 290709Z AUTO 20016G28KT 10SM CLR 03/M16 A3003 RMK AO2
Loading
Personal Weather Stations






























Interactive Weather Map New forecast layout! Learn more

10-Day Weather Forecast

Advertisements
Track Severe Weather on mobile